createdAt,value
2023-05-10T00:00:14.873Z,49.87
2023-05-10T00:01:14.464Z,53.80
2023-05-10T00:02:14.540Z,54.57
2023-05-10T00:03:14.535Z,56.14
2023-05-10T00:04:14.552Z,51.62
2023-05-10T00:05:14.435Z,50.78
2023-05-10T00:06:14.423Z,54.07
2023-05-10T00:07:14.538Z,54.16
2023-05-10T00:08:14.409Z,52.87
2023-05-10T00:09:14.397Z,49.53
2023-05-10T00:10:14.571Z,52.58
2023-05-10T00:11:14.389Z,54.09
2023-05-10T00:12:14.401Z,56.35
2023-05-10T00:13:14.431Z,52.75
2023-05-10T00:14:14.363Z,49.96
2023-05-10T00:15:14.354Z,52.46
2023-05-10T00:16:14.411Z,51.28
2023-05-10T00:17:14.496Z,49.26
2023-05-10T00:18:14.325Z,48.08
2023-05-10T00:19:14.334Z,48.26
2023-05-10T00:20:14.485Z,50.41
2023-05-10T00:21:14.309Z,50.72
2023-05-10T00:22:14.323Z,49.99
2023-05-10T00:23:14.296Z,52.48
2023-05-10T00:24:14.302Z,52.50
2023-05-10T00:25:14.276Z,50.37
2023-05-10T00:26:14.260Z,48.99
2023-05-10T00:27:14.536Z,52.41
2023-05-10T00:28:14.253Z,53.72
2023-05-10T00:29:14.253Z,49.73
2023-05-10T00:30:14.398Z,50.19
2023-05-10T00:31:14.228Z,50.42
2023-05-10T00:32:14.402Z,56.75
2023-05-10T00:33:14.217Z,51.50
2023-05-10T00:34:14.209Z,53.67
2023-05-10T00:35:14.202Z,51.00
2023-05-10T00:36:14.626Z,52.73
2023-05-10T00:37:14.197Z,52.97
2023-05-10T00:38:14.185Z,49.20
2023-05-10T00:39:14.170Z,51.35
2023-05-10T00:40:14.329Z,49.54
2023-05-10T00:41:14.180Z,55.00
2023-05-10T00:42:14.145Z,52.02
2023-05-10T00:43:14.149Z,51.88
2023-05-10T00:44:14.139Z,53.55
2023-05-10T00:45:14.127Z,51.95
2023-05-10T00:46:14.151Z,53.54
2023-05-10T00:47:14.126Z,53.85
2023-05-10T00:48:14.105Z,51.28
2023-05-10T00:49:14.133Z,53.09
2023-05-10T00:50:14.394Z,51.84
2023-05-10T00:51:14.108Z,58.59
2023-05-10T00:52:14.093Z,52.50
2023-05-10T00:53:14.081Z,53.97
2023-05-10T00:54:14.055Z,54.37
2023-05-10T00:55:14.055Z,56.80
2023-05-10T00:56:14.065Z,50.71
2023-05-10T00:57:14.034Z,49.99
2023-05-10T00:58:14.046Z,53.69
2023-05-10T00:59:14.025Z,52.01
2023-05-10T01:00:14.111Z,55.18
2023-05-10T01:01:14.035Z,54.71
2023-05-10T01:02:14.025Z,51.76
2023-05-10T01:03:14.112Z,56.08
2023-05-10T01:04:13.991Z,55.26
2023-05-10T01:05:14.038Z,55.38
2023-05-10T01:06:13.985Z,53.17
2023-05-10T01:07:14.001Z,55.83
2023-05-10T01:08:13.954Z,52.15
2023-05-10T01:09:13.946Z,57.77
2023-05-10T01:10:14.141Z,56.14
2023-05-10T01:11:13.934Z,49.66
2023-05-10T01:12:13.970Z,50.01
2023-05-10T01:13:13.937Z,51.82
2023-05-10T01:14:13.908Z,55.00
2023-05-10T01:15:13.901Z,51.65
2023-05-10T01:16:13.904Z,59.25
2023-05-10T01:17:13.909Z,55.86
2023-05-10T01:18:13.882Z,52.62
2023-05-10T01:19:13.877Z,49.70
2023-05-10T01:20:14.007Z,53.99
2023-05-10T01:21:13.864Z,55.61
2023-05-10T01:22:13.848Z,55.44
2023-05-10T01:23:13.837Z,56.25
2023-05-10T01:24:13.841Z,49.62
2023-05-10T01:25:13.831Z,52.58
2023-05-10T01:26:13.822Z,50.00
2023-05-10T01:27:13.857Z,51.95
2023-05-10T01:28:13.826Z,50.50
2023-05-10T01:29:13.800Z,55.59
2023-05-10T01:30:15.381Z,56.88
2023-05-10T01:31:14.812Z,55.37
2023-05-10T01:32:13.777Z,51.81
2023-05-10T01:33:13.806Z,54.01
2023-05-10T01:34:13.775Z,50.67
2023-05-10T01:35:13.754Z,55.63
2023-05-10T01:36:13.753Z,50.62
2023-05-10T01:37:13.745Z,50.05
2023-05-10T01:38:13.740Z,53.30
2023-05-10T01:39:13.737Z,53.17
2023-05-10T01:40:13.811Z,51.70
2023-05-10T01:41:13.711Z,51.54
2023-05-10T01:42:13.717Z,55.78
2023-05-10T01:43:13.698Z,52.10
2023-05-10T01:44:13.694Z,56.60
2023-05-10T01:45:13.710Z,52.58
2023-05-10T01:46:13.724Z,55.57
2023-05-10T01:47:13.699Z,56.12
2023-05-10T01:48:13.665Z,55.29
2023-05-10T01:49:13.659Z,52.68
2023-05-10T01:50:13.886Z,56.73
2023-05-10T01:51:13.655Z,57.43
2023-05-10T01:52:13.656Z,53.99
2023-05-10T01:53:13.648Z,56.53
2023-05-10T01:54:13.624Z,54.36
2023-05-10T01:55:13.844Z,53.17
2023-05-10T01:56:13.607Z,50.74
2023-05-10T01:57:13.608Z,50.88
2023-05-10T01:58:13.604Z,51.44
2023-05-10T01:59:13.590Z,49.03
2023-05-10T02:00:13.679Z,51.37
2023-05-10T02:01:13.609Z,51.75
2023-05-10T02:02:13.570Z,51.20
2023-05-10T02:03:13.628Z,49.92
2023-05-10T02:04:13.626Z,55.91
2023-05-10T02:05:13.544Z,56.62
2023-05-10T02:06:13.556Z,52.60
2023-05-10T02:07:13.530Z,53.65
2023-05-10T02:08:13.513Z,58.97
2023-05-10T02:09:13.506Z,61.76
2023-05-10T02:10:13.649Z,61.62
2023-05-10T02:11:13.815Z,61.24
2023-05-10T02:12:13.484Z,59.60
2023-05-10T02:13:13.511Z,56.30
2023-05-10T02:14:13.485Z,57.16
2023-05-10T02:15:13.480Z,53.28
2023-05-10T02:16:13.529Z,57.15
2023-05-10T02:17:13.457Z,59.30
2023-05-10T02:18:13.447Z,58.48
2023-05-10T02:19:13.455Z,57.81
2023-05-10T02:20:13.542Z,56.79
2023-05-10T02:21:13.464Z,59.01
2023-05-10T02:22:13.426Z,58.80
2023-05-10T02:23:13.402Z,55.71
2023-05-10T02:24:13.410Z,56.14
2023-05-10T02:25:13.394Z,56.25
2023-05-10T02:26:13.389Z,56.77
2023-05-10T02:27:13.395Z,58.00
2023-05-10T02:28:13.378Z,54.80
2023-05-10T02:29:13.368Z,54.16
2023-05-10T02:30:13.393Z,53.38
2023-05-10T02:31:13.357Z,56.05
2023-05-10T02:32:13.482Z,55.61
2023-05-10T02:33:13.345Z,56.94
2023-05-10T02:34:13.332Z,56.39
2023-05-10T02:35:13.320Z,52.04
2023-05-10T02:36:13.327Z,54.91
2023-05-10T02:37:13.318Z,55.37
2023-05-10T02:38:13.308Z,54.35
2023-05-10T02:39:13.311Z,55.09
2023-05-10T02:40:13.297Z,55.46
2023-05-10T02:41:13.294Z,56.80
2023-05-10T02:42:13.288Z,56.48
2023-05-10T02:43:13.267Z,54.84
2023-05-10T02:44:13.280Z,55.75
2023-05-10T02:45:13.271Z,56.11
2023-05-10T02:46:13.293Z,58.09
2023-05-10T02:47:13.244Z,55.87
2023-05-10T02:48:13.301Z,54.39
2023-05-10T02:49:13.253Z,53.79
2023-05-10T02:50:13.279Z,58.25
2023-05-10T02:51:13.235Z,60.84
2023-05-10T02:52:13.217Z,57.82
2023-05-10T02:53:13.204Z,57.52
2023-05-10T02:54:13.197Z,59.25
2023-05-10T02:55:13.189Z,57.38
2023-05-10T02:56:13.202Z,58.03
2023-05-10T02:57:13.171Z,59.85
2023-05-10T02:58:13.179Z,60.26
2023-05-10T02:59:13.156Z,61.38
2023-05-10T03:00:13.158Z,56.35
2023-05-10T03:01:13.178Z,55.27
2023-05-10T03:02:13.145Z,57.79
2023-05-10T03:03:13.129Z,59.36
2023-05-10T03:04:13.176Z,60.61
2023-05-10T03:05:13.152Z,58.07
2023-05-10T03:06:13.125Z,59.62
2023-05-10T03:07:13.097Z,57.72
2023-05-10T03:08:13.095Z,58.00
2023-05-10T03:09:13.093Z,60.54
2023-05-10T03:10:13.107Z,61.08
2023-05-10T03:11:13.108Z,60.67
2023-05-10T03:12:13.084Z,58.95
2023-05-10T03:13:13.145Z,57.28
2023-05-10T03:14:13.047Z,58.59
2023-05-10T03:15:13.041Z,58.46
2023-05-10T03:16:13.116Z,59.76
2023-05-10T03:17:13.052Z,57.70
2023-05-10T03:18:13.026Z,59.13
2023-05-10T03:19:13.017Z,56.93
2023-05-10T03:20:13.031Z,59.71
2023-05-10T03:21:12.989Z,58.51
2023-05-10T03:22:13.012Z,58.21
2023-05-10T03:23:12.982Z,57.93
2023-05-10T03:24:13.967Z,57.87
2023-05-10T03:25:12.965Z,57.96
2023-05-10T03:26:12.960Z,57.49
2023-05-10T03:27:12.964Z,59.07
2023-05-10T03:28:12.952Z,57.30
2023-05-10T03:29:12.950Z,57.79
2023-05-10T03:30:12.961Z,56.88
2023-05-10T03:31:12.969Z,57.53
2023-05-10T03:32:12.937Z,58.42
2023-05-10T03:33:12.904Z,58.52
2023-05-10T03:34:12.906Z,58.42
2023-05-10T03:35:12.891Z,59.20
2023-05-10T03:36:12.893Z,59.20
2023-05-10T03:37:12.895Z,59.39
2023-05-10T03:38:12.873Z,59.35
2023-05-10T03:39:12.861Z,60.37
2023-05-10T03:40:12.884Z,60.71
2023-05-10T03:41:12.844Z,58.42
2023-05-10T03:42:12.951Z,58.93
2023-05-10T03:43:12.838Z,60.16
2023-05-10T03:44:12.847Z,61.67
2023-05-10T03:45:12.819Z,60.97
2023-05-10T03:46:12.947Z,60.39
2023-05-10T03:47:12.797Z,60.62
2023-05-10T03:48:12.838Z,59.68
2023-05-10T03:49:12.832Z,61.02
2023-05-10T03:50:12.789Z,62.43
2023-05-10T03:51:12.786Z,61.15
2023-05-10T03:52:12.774Z,60.39
2023-05-10T03:53:12.779Z,61.23
2023-05-10T03:54:12.761Z,60.31
2023-05-10T03:55:12.751Z,60.96
2023-05-10T03:56:12.734Z,62.19
2023-05-10T03:57:12.749Z,60.28
2023-05-10T03:58:12.721Z,61.07
2023-05-10T03:59:12.719Z,60.83
2023-05-10T04:00:12.730Z,63.22
2023-05-10T04:01:12.710Z,62.07
2023-05-10T04:02:12.724Z,61.12
2023-05-10T04:03:12.822Z,60.26
2023-05-10T04:04:12.797Z,61.01
2023-05-10T04:05:12.685Z,61.18
2023-05-10T04:06:12.738Z,60.97
2023-05-10T04:07:12.688Z,61.34
2023-05-10T04:08:12.651Z,60.99
2023-05-10T04:09:12.657Z,60.01
2023-05-10T04:10:12.660Z,60.18
2023-05-10T04:11:12.642Z,60.62
2023-05-10T04:12:12.633Z,60.49
2023-05-10T04:13:12.670Z,61.70
2023-05-10T04:14:12.648Z,63.00
2023-05-10T04:15:12.616Z,61.06
2023-05-10T04:16:12.648Z,62.27
2023-05-10T04:17:12.699Z,62.65
2023-05-10T04:18:12.594Z,62.57
2023-05-10T04:19:12.583Z,60.83
2023-05-10T04:20:12.581Z,62.64
2023-05-10T04:21:12.564Z,61.62
2023-05-10T04:22:13.570Z,61.16
2023-05-10T04:23:12.567Z,62.66
2023-05-10T04:24:13.510Z,61.62
2023-05-10T04:25:12.537Z,60.92
2023-05-10T04:26:12.523Z,62.49
2023-05-10T04:27:12.512Z,61.43
2023-05-10T04:28:13.526Z,60.99
2023-05-10T04:29:12.533Z,63.02
2023-05-10T04:30:12.529Z,64.40
2023-05-10T04:31:12.664Z,63.17
2023-05-10T04:32:12.484Z,62.62
2023-05-10T04:33:12.477Z,63.62
2023-05-10T04:34:12.483Z,62.04
2023-05-10T04:35:12.465Z,61.13
2023-05-10T04:36:12.462Z,62.86
2023-05-10T04:37:12.455Z,62.95
2023-05-10T04:38:12.446Z,64.27
2023-05-10T04:39:12.427Z,62.76
2023-05-10T04:40:12.434Z,61.99
2023-05-10T04:41:12.433Z,62.23
2023-05-10T04:42:12.469Z,62.96
2023-05-10T04:43:12.416Z,64.98
2023-05-10T04:44:12.424Z,64.40
2023-05-10T04:45:12.431Z,63.79
2023-05-10T04:46:12.426Z,64.06
2023-05-10T04:47:12.806Z,64.71
2023-05-10T04:48:13.379Z,63.14
2023-05-10T04:49:12.364Z,63.57
2023-05-10T04:50:12.373Z,64.03
2023-05-10T04:51:12.364Z,64.50
2023-05-10T04:52:12.446Z,64.21
2023-05-10T04:53:13.997Z,63.37
2023-05-10T04:54:12.356Z,63.18
2023-05-10T04:55:12.319Z,64.01
2023-05-10T04:56:14.005Z,64.33
2023-05-10T04:57:12.315Z,63.50
2023-05-10T04:58:12.332Z,62.11
2023-05-10T04:59:12.293Z,62.72
2023-05-10T05:00:12.290Z,62.39
2023-05-10T05:01:12.326Z,63.44
2023-05-10T05:02:12.274Z,63.63
2023-05-10T05:03:12.366Z,63.90
2023-05-10T05:04:12.296Z,62.11
2023-05-10T05:05:12.263Z,63.04
2023-05-10T05:06:12.372Z,62.41
2023-05-10T05:07:12.256Z,62.11
2023-05-10T05:08:12.237Z,61.80
2023-05-10T05:09:12.250Z,62.86
2023-05-10T05:10:12.232Z,64.32
2023-05-10T05:11:12.224Z,63.44
2023-05-10T05:12:12.202Z,63.66
2023-05-10T05:13:12.232Z,63.60
2023-05-10T05:14:12.187Z,62.57
2023-05-10T05:15:12.171Z,63.40
2023-05-10T05:16:12.282Z,61.61
2023-05-10T05:17:12.185Z,62.88
2023-05-10T05:18:12.198Z,64.27
2023-05-10T05:19:12.159Z,63.84
2023-05-10T05:20:12.162Z,62.36
2023-05-10T05:21:12.177Z,62.85
2023-05-10T05:22:12.150Z,63.59
2023-05-10T05:23:12.155Z,62.98
2023-05-10T05:24:12.135Z,61.88
2023-05-10T05:25:12.131Z,62.65
2023-05-10T05:26:12.129Z,63.84
2023-05-10T05:27:12.117Z,62.97
2023-05-10T05:28:12.113Z,62.51
2023-05-10T05:29:12.095Z,62.49
2023-05-10T05:30:12.122Z,63.24
2023-05-10T05:31:12.109Z,62.60
2023-05-10T05:32:12.173Z,62.11
2023-05-10T05:33:12.158Z,62.97
2023-05-10T05:34:12.068Z,63.53
2023-05-10T05:35:12.059Z,62.55
2023-05-10T05:36:12.088Z,63.01
2023-05-10T05:37:12.078Z,61.98
2023-05-10T05:38:12.162Z,64.22
2023-05-10T05:39:12.072Z,63.49
2023-05-10T05:40:12.023Z,63.38
2023-05-10T05:41:12.034Z,62.18
2023-05-10T05:42:12.005Z,63.99
2023-05-10T05:43:12.015Z,64.39
2023-05-10T05:44:11.999Z,62.42
2023-05-10T05:45:12.001Z,64.07
2023-05-10T05:46:12.096Z,63.00
2023-05-10T05:47:11.987Z,62.86
2023-05-10T05:48:11.987Z,63.33
2023-05-10T05:49:12.016Z,62.69
2023-05-10T05:50:12.014Z,64.38
2023-05-10T05:51:11.945Z,63.64
2023-05-10T05:52:11.951Z,62.89
2023-05-10T05:53:11.965Z,63.56
2023-05-10T05:54:11.924Z,62.86
2023-05-10T05:55:11.949Z,61.15
2023-05-10T05:56:11.917Z,60.54
2023-05-10T05:57:11.923Z,61.54
2023-05-10T05:58:11.919Z,61.16
2023-05-10T05:59:11.899Z,62.07
2023-05-10T06:00:11.894Z,62.13
2023-05-10T06:01:11.878Z,61.26
2023-05-10T06:02:11.924Z,62.25
2023-05-10T06:03:11.965Z,62.21
2023-05-10T06:04:11.934Z,61.83
2023-05-10T06:05:11.867Z,60.52
2023-05-10T06:06:11.854Z,60.18
2023-05-10T06:07:11.844Z,60.55
2023-05-10T06:08:11.836Z,60.19
2023-05-10T06:09:11.856Z,60.82
2023-05-10T06:10:11.970Z,60.51
2023-05-10T06:11:11.821Z,61.32
2023-05-10T06:12:11.812Z,60.55
2023-05-10T06:13:11.827Z,59.66
2023-05-10T06:14:11.822Z,60.05
2023-05-10T06:15:11.792Z,60.90
2023-05-10T06:16:11.830Z,60.77
2023-05-10T06:17:11.779Z,59.02
2023-05-10T06:18:11.812Z,60.80
2023-05-10T06:19:11.765Z,60.13
2023-05-10T06:20:11.776Z,61.74
2023-05-10T06:21:11.760Z,60.17
2023-05-10T06:22:11.758Z,60.34
2023-05-10T06:23:11.742Z,59.66
2023-05-10T06:24:11.740Z,59.08
2023-05-10T06:25:11.765Z,59.33
2023-05-10T06:26:11.726Z,59.70
2023-05-10T06:27:11.722Z,59.77
2023-05-10T06:28:11.717Z,59.23
2023-05-10T06:29:11.706Z,59.50
2023-05-10T06:30:13.417Z,59.42
2023-05-10T06:31:12.717Z,59.81
2023-05-10T06:32:11.682Z,61.18
2023-05-10T06:33:11.724Z,59.92
2023-05-10T06:34:11.666Z,60.62
2023-05-10T06:35:11.691Z,60.22
2023-05-10T06:36:11.658Z,59.72
2023-05-10T06:37:11.655Z,59.89
2023-05-10T06:38:11.646Z,60.07
2023-05-10T06:39:11.633Z,59.81
2023-05-10T06:40:11.656Z,60.67
2023-05-10T06:41:11.630Z,60.36
2023-05-10T06:42:11.650Z,59.45
2023-05-10T06:43:11.621Z,59.88
2023-05-10T06:44:11.627Z,60.59
2023-05-10T06:45:11.611Z,62.21
2023-05-10T06:46:11.653Z,60.97
2023-05-10T06:47:11.606Z,60.41
2023-05-10T06:48:11.615Z,61.38
2023-05-10T06:49:11.573Z,61.43
2023-05-10T06:50:11.559Z,60.96
2023-05-10T06:51:11.589Z,59.22
2023-05-10T06:52:11.559Z,59.28
2023-05-10T06:53:11.552Z,59.62
2023-05-10T06:54:11.553Z,59.35
2023-05-10T06:55:11.537Z,59.98
2023-05-10T06:56:11.548Z,60.23
2023-05-10T06:57:23.442Z,61.44
2023-05-10T06:58:13.513Z,60.18
2023-05-10T06:59:11.516Z,60.07
2023-05-10T07:00:11.521Z,60.43
2023-05-10T07:01:11.652Z,60.53
2023-05-10T07:02:11.562Z,58.58
2023-05-10T07:03:11.502Z,60.07
2023-05-10T07:04:11.471Z,60.32
2023-05-10T07:05:11.455Z,60.48
2023-05-10T07:06:21.808Z,61.41
2023-05-10T07:07:13.450Z,59.60
2023-05-10T07:08:11.431Z,60.17
2023-05-10T07:09:11.426Z,62.08
2023-05-10T07:10:11.424Z,59.25
2023-05-10T07:11:11.437Z,61.10
2023-05-10T07:12:13.406Z,59.62
2023-05-10T07:13:11.445Z,61.23
2023-05-10T07:14:11.399Z,62.16
2023-05-10T07:15:11.405Z,60.77
2023-05-10T07:16:11.406Z,61.27
2023-05-10T07:17:11.462Z,60.25
2023-05-10T07:18:11.411Z,61.76
2023-05-10T07:19:11.372Z,61.53
2023-05-10T07:20:11.360Z,62.35
2023-05-10T07:21:11.411Z,62.79
2023-05-10T07:22:11.339Z,60.22
2023-05-10T07:23:11.339Z,59.43
2023-05-10T07:24:11.331Z,60.03
2023-05-10T07:25:11.320Z,61.80
2023-05-10T07:26:11.301Z,61.50
2023-05-10T07:27:11.324Z,60.18
2023-05-10T07:28:11.285Z,61.07
2023-05-10T07:29:11.294Z,60.53
2023-05-10T07:30:11.282Z,58.56
2023-05-10T07:31:11.291Z,60.63
2023-05-10T07:32:11.325Z,60.84
2023-05-10T07:33:11.311Z,61.08
2023-05-10T07:34:11.252Z,60.70
2023-05-10T07:35:11.252Z,60.22
2023-05-10T07:36:11.232Z,61.24
2023-05-10T07:37:11.231Z,59.81
2023-05-10T07:38:11.220Z,60.24
2023-05-10T07:39:12.652Z,61.80
2023-05-10T07:40:11.199Z,60.61
2023-05-10T07:41:11.189Z,58.69
2023-05-10T07:42:11.190Z,59.51
2023-05-10T07:43:11.205Z,61.04
2023-05-10T07:44:11.211Z,59.94
2023-05-10T07:45:11.174Z,61.27
2023-05-10T07:46:11.269Z,58.56
2023-05-10T07:47:11.152Z,60.32
2023-05-10T07:48:11.159Z,61.55
2023-05-10T07:49:11.142Z,60.37
2023-05-10T07:50:11.143Z,58.92
2023-05-10T07:51:11.136Z,60.08
2023-05-10T07:52:11.113Z,59.82
2023-05-10T07:53:11.109Z,58.88
2023-05-10T07:54:11.101Z,59.60
2023-05-10T07:55:11.100Z,59.70
2023-05-10T07:56:11.082Z,61.64
2023-05-10T07:57:11.076Z,59.74
2023-05-10T07:58:11.080Z,60.60
2023-05-10T07:59:12.822Z,60.60
2023-05-10T08:00:12.049Z,58.56
2023-05-10T08:01:11.050Z,57.82
2023-05-10T08:02:11.059Z,58.49
2023-05-10T08:03:11.143Z,59.25
2023-05-10T08:04:11.068Z,57.28
2023-05-10T08:05:11.020Z,57.93
2023-05-10T08:06:11.005Z,57.95
2023-05-10T08:07:11.009Z,57.93
2023-05-10T08:08:11.003Z,58.50
2023-05-10T08:09:11.019Z,56.28
2023-05-10T08:10:10.987Z,58.09
2023-05-10T08:11:10.993Z,59.43
2023-05-10T08:12:10.962Z,57.68
2023-05-10T08:13:10.969Z,56.21
2023-05-10T08:14:10.980Z,58.10
2023-05-10T08:15:10.967Z,58.94
2023-05-10T08:16:10.985Z,58.10
2023-05-10T08:17:10.941Z,55.94
2023-05-10T08:18:10.958Z,55.80
2023-05-10T08:19:10.989Z,57.45
2023-05-10T08:20:10.932Z,56.21
2023-05-10T08:21:10.908Z,55.04
2023-05-10T08:22:10.937Z,57.29
2023-05-10T08:23:10.898Z,56.31
2023-05-10T08:24:10.885Z,57.07
2023-05-10T08:25:10.895Z,56.98
2023-05-10T08:26:10.892Z,57.56
2023-05-10T08:27:10.872Z,55.79
2023-05-10T08:28:11.939Z,56.05
2023-05-10T08:29:10.875Z,57.50
2023-05-10T08:30:10.897Z,56.64
2023-05-10T08:31:10.930Z,56.95
2023-05-10T08:32:10.955Z,58.61
2023-05-10T08:33:10.887Z,58.10
2023-05-10T08:34:10.837Z,57.64
2023-05-10T08:35:10.858Z,57.09
2023-05-10T08:36:10.808Z,60.23
2023-05-10T08:37:10.800Z,58.71
2023-05-10T08:38:10.836Z,55.21
2023-05-10T08:39:22.901Z,55.36
2023-05-10T08:40:12.794Z,56.80
2023-05-10T08:41:10.786Z,55.05
2023-05-10T08:42:10.812Z,53.01
2023-05-10T08:43:10.776Z,52.72
2023-05-10T08:44:10.753Z,54.91
2023-05-10T08:45:10.743Z,55.22
2023-05-10T08:46:10.745Z,54.48
2023-05-10T08:47:10.808Z,56.00
2023-05-10T08:48:10.796Z,56.08
2023-05-10T08:49:10.728Z,57.66
2023-05-10T08:50:10.730Z,56.53
2023-05-10T08:51:10.717Z,57.30
2023-05-10T08:52:10.709Z,57.12
2023-05-10T08:53:10.720Z,59.35
2023-05-10T08:54:10.703Z,66.58
2023-05-10T08:55:10.686Z,64.12
2023-05-10T08:56:10.692Z,61.13
2023-05-10T08:57:10.683Z,61.16
2023-05-10T08:58:10.662Z,63.56
2023-05-10T08:59:10.667Z,60.76
2023-05-10T09:00:10.650Z,57.13
2023-05-10T09:01:10.690Z,56.51
2023-05-10T09:02:10.637Z,57.02
2023-05-10T09:03:10.710Z,56.05
2023-05-10T09:04:10.784Z,56.26
2023-05-10T09:05:10.665Z,56.14
2023-05-10T09:06:10.631Z,56.73
2023-05-10T09:07:10.617Z,54.28
2023-05-10T09:08:10.642Z,53.85
2023-05-10T09:09:10.604Z,56.72
2023-05-10T09:10:10.602Z,56.77
2023-05-10T09:11:10.590Z,56.06
2023-05-10T09:12:10.581Z,55.07
2023-05-10T09:13:10.565Z,54.09
2023-05-10T09:14:10.587Z,53.71
2023-05-10T09:15:10.588Z,56.85
2023-05-10T09:16:21.213Z,57.41
2023-05-10T09:17:12.606Z,56.92
2023-05-10T09:18:10.555Z,57.48
2023-05-10T09:19:10.616Z,56.61
2023-05-10T09:20:10.585Z,55.02
2023-05-10T09:21:10.519Z,57.00
2023-05-10T09:22:10.502Z,55.74
2023-05-10T09:23:10.506Z,58.15
2023-05-10T09:24:10.514Z,55.91
2023-05-10T09:25:10.569Z,55.87
2023-05-10T09:26:10.485Z,54.77
2023-05-10T09:27:10.504Z,57.15
2023-05-10T09:28:10.506Z,56.46
2023-05-10T09:29:10.467Z,55.59
2023-05-10T09:30:10.544Z,55.85
2023-05-10T09:31:10.480Z,54.08
2023-05-10T09:32:10.458Z,53.14
2023-05-10T09:33:10.437Z,54.66
2023-05-10T09:34:10.436Z,57.86
2023-05-10T09:35:10.436Z,58.80
2023-05-10T09:36:10.430Z,57.76
2023-05-10T09:37:10.421Z,57.83
2023-05-10T09:38:10.421Z,55.10
2023-05-10T09:39:10.399Z,58.31
2023-05-10T09:40:11.395Z,54.99
2023-05-10T09:41:10.385Z,55.22
2023-05-10T09:42:10.380Z,57.13
2023-05-10T09:43:10.370Z,57.88
2023-05-10T09:44:10.362Z,57.47
2023-05-10T09:45:10.380Z,58.39
2023-05-10T09:46:10.398Z,56.26
2023-05-10T09:47:10.344Z,56.42
2023-05-10T09:48:10.364Z,57.70
2023-05-10T09:49:10.370Z,58.53
2023-05-10T09:50:10.357Z,58.13
2023-05-10T09:51:10.350Z,57.92
2023-05-10T09:52:10.586Z,58.04
2023-05-10T09:53:10.370Z,57.57
2023-05-10T09:54:10.312Z,58.44
2023-05-10T09:55:10.299Z,57.16
2023-05-10T09:56:10.294Z,58.14
2023-05-10T09:57:10.324Z,56.51
2023-05-10T09:58:10.280Z,56.16
2023-05-10T09:59:10.282Z,55.17
2023-05-10T10:00:10.264Z,56.52
2023-05-10T10:01:10.285Z,57.60
2023-05-10T10:02:10.265Z,60.01
2023-05-10T10:03:10.279Z,56.70
2023-05-10T10:04:10.251Z,56.15
2023-05-10T10:05:10.369Z,56.16
2023-05-10T10:06:18.738Z,56.70
2023-05-10T10:07:12.270Z,53.08
2023-05-10T10:08:10.215Z,55.44
2023-05-10T10:09:10.210Z,55.19
2023-05-10T10:10:10.196Z,53.53
2023-05-10T10:11:10.223Z,53.74
2023-05-10T10:12:10.198Z,56.87
2023-05-10T10:13:10.198Z,55.77
2023-05-10T10:14:10.185Z,54.10
2023-05-10T10:15:10.178Z,55.45
2023-05-10T10:16:10.209Z,56.57
2023-05-10T10:17:10.250Z,55.23
2023-05-10T10:18:10.246Z,54.39
2023-05-10T10:19:10.154Z,51.33
2023-05-10T10:20:14.627Z,52.89
2023-05-10T10:21:11.134Z,51.45
2023-05-10T10:22:10.129Z,51.93
2023-05-10T10:23:10.121Z,54.27
2023-05-10T10:24:10.123Z,52.03
2023-05-10T10:25:10.120Z,51.01
2023-05-10T10:26:10.119Z,51.58
2023-05-10T10:27:10.096Z,51.90
2023-05-10T10:28:10.116Z,50.84
2023-05-10T10:29:10.071Z,50.96
2023-05-10T10:30:10.089Z,52.52
2023-05-10T10:31:10.109Z,50.90
2023-05-10T10:32:10.080Z,50.28
2023-05-10T10:33:20.591Z,51.50
2023-05-10T10:34:12.078Z,53.20
2023-05-10T10:35:10.038Z,53.48
2023-05-10T10:36:10.028Z,54.05
2023-05-10T10:37:10.031Z,53.70
2023-05-10T10:38:10.099Z,53.84
2023-05-10T10:39:10.034Z,52.28
2023-05-10T10:40:10.024Z,56.01
2023-05-10T10:41:10.007Z,49.65
2023-05-10T10:42:10.003Z,51.27
2023-05-10T10:43:10.004Z,50.19
2023-05-10T10:44:09.996Z,50.23
2023-05-10T10:45:09.990Z,53.35
2023-05-10T10:46:09.969Z,54.25
2023-05-10T10:47:10.123Z,53.58
2023-05-10T10:48:09.962Z,51.82
2023-05-10T10:49:09.982Z,50.58
2023-05-10T10:50:09.960Z,54.54
2023-05-10T10:51:12.245Z,55.35
2023-05-10T10:52:09.946Z,53.24
2023-05-10T10:53:09.990Z,54.52
2023-05-10T10:54:09.953Z,54.95
2023-05-10T10:55:09.958Z,55.06
2023-05-10T10:56:09.930Z,55.39
2023-05-10T10:57:09.947Z,53.02
2023-05-10T10:58:09.899Z,54.48
2023-05-10T10:59:09.933Z,54.72
2023-05-10T11:00:09.919Z,55.48
2023-05-10T11:01:09.934Z,54.75
2023-05-10T11:02:09.892Z,54.06
2023-05-10T11:03:09.956Z,57.72
2023-05-10T11:04:09.925Z,55.66
2023-05-10T11:05:09.892Z,56.37
2023-05-10T11:06:09.881Z,56.83
2023-05-10T11:07:09.851Z,56.23
2023-05-10T11:08:09.863Z,56.76
2023-05-10T11:09:09.834Z,55.30
2023-05-10T11:10:09.867Z,54.86
2023-05-10T11:11:09.905Z,55.23
2023-05-10T11:12:09.854Z,56.16
2023-05-10T11:13:09.799Z,55.77
2023-05-10T11:14:09.838Z,55.43
2023-05-10T11:15:09.858Z,54.57
2023-05-10T11:16:09.853Z,56.27
2023-05-10T11:17:09.828Z,56.78
2023-05-10T11:18:09.851Z,58.41
2023-05-10T11:19:09.908Z,57.25
2023-05-10T11:20:09.794Z,60.83
2023-05-10T11:21:09.767Z,56.33
2023-05-10T11:22:09.756Z,57.91
2023-05-10T11:23:09.739Z,56.63
2023-05-10T11:24:09.733Z,57.32
2023-05-10T11:25:09.749Z,56.90
2023-05-10T11:26:09.723Z,57.23
2023-05-10T11:27:09.746Z,55.90
2023-05-10T11:28:09.712Z,57.92
2023-05-10T11:29:09.704Z,57.46
2023-05-10T11:30:09.725Z,56.19
2023-05-10T11:31:09.805Z,55.51
2023-05-10T11:32:09.695Z,55.84
2023-05-10T11:33:09.796Z,56.25
2023-05-10T11:34:09.680Z,57.89
2023-05-10T11:35:09.671Z,58.09
2023-05-10T11:36:09.682Z,56.46
2023-05-10T11:37:09.682Z,58.90
2023-05-10T11:38:09.674Z,57.18
2023-05-10T11:39:09.656Z,58.99
2023-05-10T11:40:09.670Z,57.97
2023-05-10T11:41:09.626Z,58.26
2023-05-10T11:42:09.641Z,57.71
2023-05-10T11:43:09.624Z,58.73
2023-05-10T11:44:09.616Z,58.06
2023-05-10T11:45:09.597Z,58.72
2023-05-10T11:46:09.650Z,57.21
2023-05-10T11:47:09.627Z,56.31
2023-05-10T11:48:09.686Z,57.99
2023-05-10T11:49:09.587Z,57.16
2023-05-10T11:50:09.582Z,58.09
2023-05-10T11:51:09.571Z,57.21
2023-05-10T11:52:09.569Z,57.77
2023-05-10T11:53:09.594Z,57.58
2023-05-10T11:54:09.576Z,58.01
2023-05-10T11:55:09.586Z,56.72
2023-05-10T11:56:09.549Z,57.75
2023-05-10T11:57:09.554Z,58.06
2023-05-10T11:58:09.558Z,58.42
2023-05-10T11:59:09.573Z,57.80
2023-05-10T12:00:09.517Z,59.39
2023-05-10T12:01:09.493Z,60.92
2023-05-10T12:02:09.511Z,60.31
2023-05-10T12:03:09.582Z,59.00
2023-05-10T12:04:09.809Z,58.38
2023-05-10T12:05:09.556Z,60.21
2023-05-10T12:06:09.468Z,58.93
2023-05-10T12:07:09.481Z,59.77
2023-05-10T12:08:09.453Z,58.31
2023-05-10T12:09:09.468Z,58.38
2023-05-10T12:10:09.449Z,58.95
2023-05-10T12:11:09.441Z,61.56
2023-05-10T12:12:09.420Z,60.72
2023-05-10T12:13:09.415Z,59.57
2023-05-10T12:14:09.427Z,58.81
2023-05-10T12:15:09.400Z,60.41
2023-05-10T12:16:09.408Z,59.11
2023-05-10T12:17:09.403Z,60.84
2023-05-10T12:18:09.404Z,59.66
2023-05-10T12:19:09.430Z,61.45
2023-05-10T12:20:09.366Z,58.99
2023-05-10T12:21:09.380Z,59.40
2023-05-10T12:22:09.362Z,60.01
2023-05-10T12:23:09.349Z,61.95
2023-05-10T12:24:09.368Z,60.49
2023-05-10T12:25:09.337Z,60.11
2023-05-10T12:26:09.335Z,60.21
2023-05-10T12:27:09.393Z,59.73
2023-05-10T12:28:09.363Z,60.54
2023-05-10T12:29:09.320Z,60.99
2023-05-10T12:30:09.312Z,60.53
2023-05-10T12:31:09.338Z,62.06
2023-05-10T12:32:09.456Z,63.82
2023-05-10T12:33:09.412Z,60.90
2023-05-10T12:34:09.272Z,60.44
2023-05-10T12:35:09.341Z,61.71
2023-05-10T12:36:09.271Z,59.75
2023-05-10T12:37:09.265Z,61.31
2023-05-10T12:38:09.253Z,61.34
2023-05-10T12:39:09.242Z,61.77
2023-05-10T12:40:09.259Z,62.61
2023-05-10T12:41:09.322Z,62.37
2023-05-10T12:42:09.230Z,61.17
2023-05-10T12:43:09.240Z,61.47
2023-05-10T12:44:09.230Z,60.27
2023-05-10T12:45:09.214Z,61.45
2023-05-10T12:46:09.297Z,59.59
2023-05-10T12:47:09.200Z,60.24
2023-05-10T12:48:09.237Z,60.96
2023-05-10T12:49:09.852Z,59.60
2023-05-10T12:50:09.176Z,59.24
2023-05-10T12:51:09.176Z,59.36
2023-05-10T12:52:09.168Z,59.32